createdAt,value
2023-04-05T00:00:22.759Z,27.55
2023-04-05T00:02:49.503Z,28.67
2023-04-05T00:05:29.102Z,27.45
2023-04-05T00:07:57.454Z,27.65
2023-04-05T00:10:24.092Z,28.48
2023-04-05T00:12:51.072Z,27.90
2023-04-05T00:15:17.810Z,28.50
2023-04-05T00:17:45.387Z,29.90
2023-04-05T00:20:12.600Z,28.85
2023-04-05T00:22:41.773Z,29.80
2023-04-05T00:25:09.015Z,29.02
2023-04-05T00:27:35.953Z,27.98
2023-04-05T00:30:02.683Z,27.42
2023-04-05T00:32:29.502Z,26.88
2023-04-05T00:34:56.125Z,26.75
2023-04-05T00:37:22.925Z,25.90
2023-04-05T00:39:49.604Z,25.95
2023-04-05T00:42:16.187Z,26.25
2023-04-05T00:44:42.793Z,26.00
2023-04-05T00:47:09.462Z,26.20
2023-04-05T00:49:37.608Z,28.30
2023-04-05T00:52:04.340Z,26.63
2023-04-05T00:54:31.335Z,26.05
2023-04-05T00:57:02.401Z,25.70
2023-04-05T00:59:29.130Z,25.92
2023-04-05T01:02:21.022Z,25.45
2023-04-05T01:04:53.367Z,26.45
2023-04-05T01:07:31.649Z,25.75
2023-04-05T01:10:00.556Z,25.10
2023-04-05T01:12:33.024Z,24.60
2023-04-05T01:15:01.229Z,25.13
2023-04-05T01:17:29.955Z,25.08
2023-04-05T01:20:03.496Z,24.17
2023-04-05T01:22:45.321Z,25.15
2023-04-05T01:25:45.117Z,24.08
2023-04-05T01:28:30.666Z,24.98
2023-04-05T01:31:14.874Z,24.38
2023-04-05T01:33:55.224Z,24.23
2023-04-05T01:36:36.272Z,25.45
2023-04-05T01:39:06.098Z,25.90
2023-04-05T01:41:33.312Z,25.27
2023-04-05T01:44:00.436Z,25.38
2023-04-05T01:46:28.201Z,25.17
2023-04-05T01:48:55.073Z,23.92
2023-04-05T01:51:21.747Z,25.75
2023-04-05T01:53:48.396Z,24.38
2023-04-05T01:56:15.118Z,25.10
2023-04-05T01:58:41.802Z,24.55
2023-04-05T02:01:08.633Z,23.60
2023-04-05T02:03:35.543Z,25.23
2023-04-05T02:06:02.203Z,24.35
2023-04-05T02:08:28.836Z,23.15
2023-04-05T02:10:55.470Z,23.67
2023-04-05T02:13:22.352Z,24.10
2023-04-05T02:15:52.710Z,23.30
2023-04-05T02:18:22.099Z,23.33
2023-04-05T02:20:52.114Z,24.85
2023-04-05T02:23:19.930Z,24.55
2023-04-05T02:25:46.821Z,24.10
2023-04-05T02:28:13.526Z,25.35
2023-04-05T02:30:40.332Z,25.20
2023-04-05T02:33:10.430Z,25.48
2023-04-05T02:35:37.204Z,24.63
2023-04-05T02:38:04.983Z,23.23
2023-04-05T02:40:34.626Z,24.30
2023-04-05T02:43:02.041Z,23.77
2023-04-05T02:45:28.963Z,23.38
2023-04-05T02:47:57.995Z,23.25
2023-04-05T02:50:25.572Z,22.95
2023-04-05T02:52:52.454Z,23.67
2023-04-05T02:55:20.372Z,23.25
2023-04-05T02:57:47.326Z,22.88
2023-04-05T03:00:38.212Z,22.42
2023-04-05T03:03:05.711Z,22.95
2023-04-05T03:05:34.352Z,23.50
2023-04-05T03:08:02.144Z,22.40
2023-04-05T03:10:34.913Z,22.45
2023-04-05T03:13:06.340Z,22.50
2023-04-05T03:15:33.391Z,22.02
2023-04-05T03:18:05.944Z,23.17
2023-04-05T03:20:35.635Z,22.90
2023-04-05T03:23:03.337Z,22.92
2023-04-05T03:25:35.040Z,23.23
2023-04-05T03:28:08.498Z,23.90
2023-04-05T03:30:36.553Z,22.80
2023-04-05T03:33:15.394Z,23.15
2023-04-05T03:35:45.948Z,24.67
2023-04-05T03:38:13.848Z,23.40
2023-04-05T03:40:48.647Z,24.67
2023-04-05T03:43:15.508Z,23.83
2023-04-05T03:45:42.532Z,25.25
2023-04-05T03:48:09.484Z,25.02
2023-04-05T03:50:36.263Z,24.17
2023-04-05T03:53:03.259Z,22.98
2023-04-05T03:55:30.040Z,23.33
2023-04-05T03:58:00.712Z,23.40
2023-04-05T04:00:32.905Z,25.23
2023-04-05T04:03:11.308Z,24.25
2023-04-05T04:05:42.503Z,23.67
2023-04-05T04:08:10.243Z,24.15
2023-04-05T04:10:37.866Z,24.48
2023-04-05T04:13:11.625Z,25.17
2023-04-05T04:15:38.537Z,24.83
2023-04-05T04:18:33.936Z,23.35
2023-04-05T04:21:19.048Z,23.75
2023-04-05T04:24:16.205Z,24.42
2023-04-05T04:26:49.172Z,24.85
2023-04-05T04:29:46.676Z,24.50
2023-04-05T04:32:58.646Z,25.40
2023-04-05T04:35:46.592Z,26.17
2023-04-05T04:38:49.046Z,25.08
2023-04-05T04:41:47.041Z,27.08
2023-04-05T04:44:32.942Z,24.80
2023-04-05T04:47:21.762Z,25.40
2023-04-05T04:50:16.028Z,26.45
2023-04-05T04:52:42.843Z,27.45
2023-04-05T04:55:14.071Z,25.10
2023-04-05T04:57:42.029Z,26.08
2023-04-05T05:00:16.629Z,25.65
2023-04-05T05:02:44.468Z,25.52
2023-04-05T05:05:14.275Z,26.92
2023-04-05T05:07:42.162Z,26.40
2023-04-05T05:10:10.811Z,29.33
2023-04-05T05:12:38.457Z,27.55
2023-04-05T05:15:05.635Z,28.83
2023-04-05T05:17:32.324Z,28.75
2023-04-05T05:20:00.242Z,27.63
2023-04-05T05:22:27.620Z,27.20
2023-04-05T05:24:54.294Z,26.45
2023-04-05T05:27:22.030Z,26.50
2023-04-05T05:29:55.629Z,28.27
2023-04-05T05:32:23.075Z,26.52
2023-04-05T05:34:49.676Z,26.92
2023-04-05T05:37:19.167Z,27.52
2023-04-05T05:39:45.856Z,26.52
2023-04-05T05:42:12.564Z,25.67
2023-04-05T05:44:39.322Z,24.60
2023-04-05T05:47:05.970Z,27.33
2023-04-05T05:49:32.587Z,29.17
2023-04-05T05:51:59.867Z,28.77
2023-04-05T05:54:27.234Z,28.20
2023-04-05T05:56:54.336Z,29.27
2023-04-05T05:59:21.267Z,29.85
2023-04-05T06:01:48.560Z,29.20
2023-04-05T06:04:16.330Z,31.40
2023-04-05T06:06:43.872Z,30.50
2023-04-05T06:09:10.694Z,32.25
2023-04-05T06:11:43.488Z,36.95
2023-04-05T06:14:16.393Z,44.45
2023-04-05T06:16:43.154Z,54.25
2023-04-05T06:19:09.911Z,59.38
2023-04-05T06:21:36.733Z,45.95
2023-04-05T06:24:03.506Z,45.70
2023-04-05T06:26:31.541Z,38.00
2023-04-05T06:28:58.168Z,41.38
2023-04-05T06:31:31.910Z,36.13
2023-04-05T06:33:58.560Z,34.53
2023-04-05T06:36:27.558Z,43.35
2023-04-05T06:38:54.598Z,44.25
2023-04-05T06:41:21.293Z,39.10
2023-04-05T06:43:47.899Z,43.33
2023-04-05T06:46:15.033Z,45.40
2023-04-05T06:48:43.772Z,34.25
2023-04-05T06:51:10.817Z,35.55
2023-04-05T06:53:37.392Z,33.67
2023-04-05T06:56:04.640Z,34.00
2023-04-05T06:58:31.559Z,32.00
2023-04-05T07:01:00.115Z,32.63
2023-04-05T07:03:26.824Z,32.33
2023-04-05T07:05:55.060Z,34.28
2023-04-05T07:08:21.851Z,33.33
2023-04-05T07:10:49.412Z,33.63
2023-04-05T07:13:19.476Z,33.55
2023-04-05T07:15:47.164Z,32.80
2023-04-05T07:18:17.399Z,33.03
2023-04-05T07:20:49.039Z,34.10
2023-04-05T07:23:16.418Z,34.72
2023-04-05T07:25:43.339Z,38.15
2023-04-05T07:28:09.941Z,38.15
2023-04-05T07:30:36.912Z,33.97
2023-04-05T07:33:03.831Z,36.10
2023-04-05T07:35:30.682Z,34.88
2023-04-05T07:37:57.407Z,39.17
2023-04-05T07:40:24.127Z,38.65
2023-04-05T07:42:50.881Z,40.22
2023-04-05T07:45:17.604Z,40.72
2023-04-05T07:47:44.290Z,41.20
2023-04-05T07:50:14.807Z,41.17
2023-04-05T07:52:42.217Z,41.53
2023-04-05T07:55:09.824Z,42.08
2023-04-05T07:57:37.469Z,41.17
2023-04-05T08:00:10.210Z,44.47
2023-04-05T08:02:40.665Z,42.42
2023-04-05T08:05:07.810Z,44.45
2023-04-05T08:07:34.458Z,42.20
2023-04-05T08:10:01.191Z,44.13
2023-04-05T08:12:27.816Z,43.08
2023-04-05T08:14:54.589Z,44.35
2023-04-05T08:17:21.332Z,46.28
2023-04-05T08:19:49.286Z,47.30
2023-04-05T08:22:17.706Z,44.80
2023-04-05T08:24:44.491Z,44.80
2023-04-05T08:27:11.717Z,44.90
2023-04-05T08:29:38.543Z,44.20
2023-04-05T08:32:05.288Z,45.58
2023-04-05T08:34:31.992Z,45.17
2023-04-05T08:36:59.979Z,43.60
2023-04-05T08:39:26.834Z,43.88
2023-04-05T08:42:05.364Z,45.22
2023-04-05T08:44:32.114Z,45.28
2023-04-05T08:47:00.511Z,44.33
2023-04-05T08:49:27.923Z,44.28
2023-04-05T08:51:55.452Z,44.67
2023-04-05T08:54:22.151Z,40.33
2023-04-05T08:56:49.734Z,40.80
2023-04-05T08:59:19.073Z,40.15
2023-04-05T09:01:48.769Z,39.53
2023-04-05T09:04:22.009Z,40.05
2023-04-05T09:06:51.255Z,50.03
2023-04-05T09:09:20.255Z,48.60
2023-04-05T09:11:47.212Z,48.35
2023-04-05T09:14:14.751Z,47.08
2023-04-05T09:16:42.102Z,47.53
2023-04-05T09:19:10.497Z,49.83
2023-04-05T09:22:10.220Z,51.05
2023-04-05T09:24:42.329Z,48.88
2023-04-05T09:27:16.234Z,50.35
2023-04-05T09:29:47.217Z,51.83
2023-04-05T09:32:15.881Z,47.80
2023-04-05T09:34:43.815Z,49.83
2023-04-05T09:37:20.611Z,51.28
2023-04-05T09:39:52.411Z,49.38
2023-04-05T09:42:22.573Z,51.58
2023-04-05T09:44:54.213Z,51.70
2023-04-05T09:47:23.040Z,50.88
2023-04-05T09:49:54.194Z,51.42
2023-04-05T09:52:25.947Z,50.80
2023-04-05T09:54:58.113Z,53.78
2023-04-05T09:57:29.497Z,52.78
2023-04-05T09:59:56.489Z,51.30
2023-04-05T10:02:23.581Z,50.30
2023-04-05T10:04:50.896Z,50.05
2023-04-05T10:07:19.238Z,51.80
2023-04-05T10:09:48.439Z,52.38
2023-04-05T10:12:28.559Z,49.33
2023-04-05T10:14:56.946Z,53.42
2023-04-05T10:17:44.545Z,52.95
2023-04-05T10:20:23.112Z,52.88
2023-04-05T10:23:26.774Z,52.17
2023-04-05T10:25:53.758Z,52.45
2023-04-05T10:28:28.060Z,46.63
2023-04-05T10:31:36.411Z,49.88
2023-04-05T10:34:12.527Z,50.33
2023-04-05T10:36:49.531Z,52.35
2023-04-05T10:39:28.436Z,50.00
2023-04-05T10:42:21.973Z,55.65
2023-04-05T10:44:53.228Z,48.72
2023-04-05T10:47:23.746Z,52.47
2023-04-05T10:49:56.243Z,53.92
2023-04-05T10:52:24.064Z,57.17
2023-04-05T10:54:52.403Z,51.72
2023-04-05T10:57:21.026Z,56.08
2023-04-05T10:59:50.038Z,55.40
2023-04-05T11:02:17.926Z,53.83
2023-04-05T11:04:44.787Z,55.60
2023-04-05T11:07:19.179Z,56.15
2023-04-05T11:09:56.569Z,55.33
2023-04-05T11:12:58.776Z,49.45
2023-04-05T11:15:25.381Z,50.45
2023-04-05T11:18:17.001Z,57.35
2023-04-05T11:20:51.525Z,56.88
2023-04-05T11:23:20.210Z,55.03
2023-04-05T11:25:51.154Z,53.35
2023-04-05T11:28:24.105Z,53.35
2023-04-05T11:30:52.835Z,55.03
2023-04-05T11:33:38.910Z,52.97
2023-04-05T11:36:06.276Z,52.67
2023-04-05T11:38:33.064Z,51.33
2023-04-05T11:41:13.448Z,49.50
2023-04-05T11:43:42.374Z,51.17
2023-04-05T11:46:09.168Z,53.63
2023-04-05T11:48:36.425Z,50.50
2023-04-05T11:51:09.829Z,53.25
2023-04-05T11:53:37.837Z,54.10
2023-04-05T11:56:12.451Z,49.15
2023-04-05T11:58:40.023Z,54.20
2023-04-05T12:01:07.946Z,51.17
2023-04-05T12:03:36.635Z,50.60
2023-04-05T12:06:05.948Z,50.85
2023-04-05T12:08:41.749Z,51.33
2023-04-05T12:11:09.991Z,49.28
2023-04-05T12:13:37.405Z,52.47
2023-04-05T12:16:08.764Z,49.65
2023-04-05T12:18:37.535Z,51.42
2023-04-05T12:21:08.988Z,50.85
2023-04-05T12:23:37.316Z,52.13
2023-04-05T12:26:06.323Z,52.78
2023-04-05T12:28:53.163Z,53.83
2023-04-05T12:31:45.334Z,53.55
2023-04-05T12:34:13.533Z,50.80
2023-04-05T12:36:45.223Z,49.75
2023-04-05T12:39:11.844Z,50.45
2023-04-05T12:41:38.966Z,52.17
2023-04-05T12:44:15.688Z,52.00
2023-04-05T12:46:46.950Z,53.55
2023-04-05T12:49:15.926Z,52.00
2023-04-05T12:51:43.937Z,53.90
2023-04-05T12:54:23.895Z,56.25
2023-04-05T12:56:52.949Z,55.53
2023-04-05T12:59:20.225Z,53.95
2023-04-05T13:01:47.172Z,55.78
2023-04-05T13:04:16.495Z,55.72
2023-04-05T13:06:46.924Z,56.03
2023-04-05T13:09:13.576Z,55.67
2023-04-05T13:11:40.294Z,53.25
2023-04-05T13:14:07.300Z,54.80
2023-04-05T13:16:34.038Z,52.22
2023-04-05T13:19:00.816Z,54.17
2023-04-05T13:21:27.472Z,54.92
2023-04-05T13:23:54.136Z,54.00
2023-04-05T13:26:20.960Z,55.13
2023-04-05T13:28:47.654Z,54.22
2023-04-05T13:31:15.989Z,55.00
2023-04-05T13:33:43.435Z,57.85
2023-04-05T13:36:12.176Z,57.35
2023-04-05T13:38:38.969Z,55.75
2023-04-05T13:41:05.840Z,57.38
2023-04-05T13:43:32.515Z,58.67
2023-04-05T13:45:59.255Z,58.50
2023-04-05T13:48:25.915Z,55.92
2023-04-05T13:50:52.571Z,57.45
2023-04-05T13:53:19.259Z,55.72
2023-04-05T13:55:45.886Z,58.80
2023-04-05T13:58:14.089Z,56.67
2023-04-05T14:00:41.179Z,53.25
2023-04-05T14:03:08.039Z,56.58
2023-04-05T14:05:34.814Z,55.90
2023-04-05T14:08:01.438Z,55.45
2023-04-05T14:10:28.077Z,59.33
2023-04-05T14:12:54.749Z,58.42
2023-04-05T14:15:21.497Z,51.67
2023-04-05T14:17:48.202Z,50.53
2023-04-05T14:20:15.250Z,50.22
2023-04-05T14:22:45.381Z,52.17
2023-04-05T14:25:12.144Z,57.40
2023-04-05T14:27:42.104Z,54.33
2023-04-05T14:30:11.086Z,55.85
2023-04-05T14:32:38.329Z,56.05
2023-04-05T14:35:06.201Z,55.97
2023-04-05T14:37:32.833Z,55.38
2023-04-05T14:39:59.483Z,54.13
2023-04-05T14:42:37.276Z,56.05
2023-04-05T14:45:13.429Z,52.58
2023-04-05T14:47:40.190Z,53.28
2023-04-05T14:50:07.810Z,52.60
2023-04-05T14:52:34.526Z,51.97
2023-04-05T14:55:01.203Z,50.70
2023-04-05T14:57:27.946Z,53.05
2023-04-05T14:59:54.682Z,54.97
2023-04-05T15:02:21.558Z,56.45
2023-04-05T15:04:48.204Z,55.47
2023-04-05T15:07:15.013Z,55.05
2023-04-05T15:09:42.892Z,54.38
2023-04-05T15:12:09.588Z,55.10
2023-04-05T15:14:36.333Z,52.72
2023-04-05T15:17:03.057Z,55.38
2023-04-05T15:19:30.519Z,55.58
2023-04-05T15:21:57.456Z,55.13
2023-04-05T15:24:24.162Z,54.30
2023-04-05T15:26:50.844Z,52.90
2023-04-05T15:29:17.628Z,55.35
2023-04-05T15:31:44.404Z,53.33
2023-04-05T15:34:14.327Z,58.35
2023-04-05T15:36:42.292Z,56.47
2023-04-05T15:39:08.954Z,55.72
2023-04-05T15:41:35.772Z,52.50
2023-04-05T15:44:03.579Z,52.85
2023-04-05T15:46:30.972Z,52.83
2023-04-05T15:48:57.663Z,53.63
2023-04-05T15:51:24.499Z,53.00
2023-04-05T15:53:51.404Z,54.47
2023-04-05T15:56:18.257Z,51.58
2023-04-05T15:58:45.201Z,53.00
2023-04-05T16:01:12.145Z,53.05
2023-04-05T16:03:39.286Z,51.38
2023-04-05T16:06:06.490Z,51.17
2023-04-05T16:08:33.377Z,51.17
2023-04-05T16:11:00.192Z,50.90
2023-04-05T16:13:27.607Z,64.20
2023-04-05T16:15:54.309Z,54.58
2023-04-05T16:18:21.212Z,62.88
2023-04-05T16:20:48.193Z,93.35
2023-04-05T16:23:15.499Z,181.93
2023-04-05T16:25:42.558Z,53.60
2023-04-05T16:28:09.541Z,50.58
2023-04-05T16:30:36.638Z,51.95
2023-04-05T16:33:03.444Z,51.28
2023-04-05T16:35:31.230Z,50.92
2023-04-05T16:37:58.442Z,53.03
2023-04-05T16:40:25.213Z,53.88
2023-04-05T16:42:54.106Z,53.85
2023-04-05T16:45:21.391Z,51.72
2023-04-05T16:47:48.355Z,55.90
2023-04-05T16:50:15.338Z,55.28
2023-04-05T16:52:42.360Z,53.50
2023-04-05T16:55:09.623Z,56.13
2023-04-05T16:57:36.640Z,64.05
2023-04-05T17:00:04.455Z,67.30
2023-04-05T17:02:31.435Z,73.03
2023-04-05T17:04:58.380Z,72.75
2023-04-05T17:07:25.687Z,72.15
2023-04-05T17:09:52.713Z,60.47
2023-04-05T17:12:20.027Z,55.75
2023-04-05T17:14:46.779Z,54.55
2023-04-05T17:17:13.692Z,57.33
2023-04-05T17:19:40.627Z,57.42
2023-04-05T17:22:07.389Z,52.53
2023-04-05T17:24:36.036Z,53.70
2023-04-05T17:27:03.983Z,68.50
2023-04-05T17:29:30.838Z,63.33
2023-04-05T17:31:57.597Z,56.53
2023-04-05T17:34:24.455Z,55.80
2023-04-05T17:36:52.582Z,54.13
2023-04-05T17:39:19.262Z,54.08
2023-04-05T17:41:46.360Z,53.05
2023-04-05T17:44:14.478Z,56.20
2023-04-05T17:46:48.444Z,70.25
2023-04-05T17:49:18.297Z,51.92
2023-04-05T17:51:46.937Z,57.03
2023-04-05T17:54:15.247Z,51.72
2023-04-05T17:56:42.088Z,35.72
2023-04-05T17:59:09.174Z,43.92
2023-04-05T18:01:37.534Z,41.10
2023-04-05T18:04:05.640Z,33.33
2023-04-05T18:06:32.571Z,61.40
2023-04-05T18:08:59.458Z,58.30
2023-04-05T18:11:26.597Z,34.05
2023-04-05T18:13:53.372Z,35.50
2023-04-05T18:16:20.378Z,35.42
2023-04-05T18:18:47.146Z,34.95
2023-04-05T18:21:13.822Z,42.20
2023-04-05T18:23:40.981Z,34.40
2023-04-05T18:26:07.949Z,37.83
2023-04-05T18:28:34.653Z,38.35
2023-04-05T18:31:01.415Z,36.38
2023-04-05T18:33:28.106Z,42.80
2023-04-05T18:35:54.876Z,35.78
2023-04-05T18:38:21.768Z,50.78
2023-04-05T18:40:48.524Z,37.92
2023-04-05T18:43:15.293Z,36.75
2023-04-05T18:45:42.273Z,36.38
2023-04-05T18:48:08.965Z,35.88
2023-04-05T18:50:36.528Z,35.50
2023-04-05T18:53:03.778Z,35.42
2023-04-05T18:55:30.476Z,37.67
2023-04-05T18:57:57.243Z,37.30
2023-04-05T19:00:23.937Z,39.10
2023-04-05T19:02:51.355Z,38.05
2023-04-05T19:05:18.632Z,39.47
2023-04-05T19:07:45.291Z,44.17
2023-04-05T19:10:12.085Z,43.85
2023-04-05T19:12:38.867Z,41.13
2023-04-05T19:15:06.820Z,37.75
2023-04-05T19:17:33.516Z,37.50
2023-04-05T19:20:00.418Z,39.70
2023-04-05T19:22:27.402Z,40.60
2023-04-05T19:24:54.569Z,41.47
2023-04-05T19:27:21.292Z,40.92
2023-04-05T19:29:48.032Z,42.25
2023-04-05T19:32:15.451Z,41.42
2023-04-05T19:34:42.189Z,41.13
2023-04-05T19:37:08.898Z,39.42
2023-04-05T19:39:36.685Z,37.00
2023-04-05T19:42:05.148Z,40.00
2023-04-05T19:44:57.916Z,35.60
2023-04-05T19:47:26.238Z,34.45
2023-04-05T19:49:58.468Z,38.40
2023-04-05T19:52:47.674Z,35.25
2023-04-05T19:55:36.102Z,37.50
2023-04-05T19:58:07.063Z,38.50
2023-04-05T20:00:35.761Z,36.60
2023-04-05T20:03:07.867Z,40.78
2023-04-05T20:05:43.660Z,39.70
2023-04-05T20:08:10.530Z,39.38
2023-04-05T20:10:48.268Z,37.97
2023-04-05T20:13:16.049Z,40.10
2023-04-05T20:15:45.800Z,40.83
2023-04-05T20:18:22.625Z,44.08
2023-04-05T20:20:51.564Z,45.95
2023-04-05T20:23:21.915Z,60.67
2023-04-05T20:25:50.790Z,82.03
2023-04-05T20:28:34.440Z,69.25
2023-04-05T20:31:22.641Z,53.65
2023-04-05T20:34:12.013Z,77.47
2023-04-05T20:36:54.485Z,94.50
2023-04-05T20:39:23.424Z,88.63
2023-04-05T20:41:50.332Z,135.70
2023-04-05T20:44:17.674Z,190.80
2023-04-05T20:46:44.505Z,136.02
2023-04-05T20:49:11.785Z,199.75
2023-04-05T20:51:41.139Z,178.77
2023-04-05T20:54:09.333Z,181.90
2023-04-05T20:56:36.434Z,185.18
2023-04-05T20:59:03.475Z,180.00
2023-04-05T21:01:30.482Z,162.07
2023-04-05T21:03:57.291Z,149.10
2023-04-05T21:06:23.980Z,109.32
2023-04-05T21:08:50.983Z,129.40
2023-04-05T21:11:17.791Z,84.00
2023-04-05T21:13:44.549Z,87.72
2023-04-05T21:16:12.071Z,59.85
2023-04-05T21:18:38.885Z,80.57
2023-04-05T21:21:05.834Z,82.78
2023-04-05T21:23:34.213Z,55.40
2023-04-05T21:26:02.009Z,57.20
2023-04-05T21:28:28.751Z,46.95
2023-04-05T21:30:55.513Z,38.95
2023-04-05T21:33:22.450Z,37.72
2023-04-05T21:35:50.520Z,35.00
2023-04-05T21:38:17.497Z,37.13
2023-04-05T21:40:44.649Z,38.58
2023-04-05T21:43:12.753Z,35.88
2023-04-05T21:45:39.584Z,34.72
2023-04-05T21:48:06.529Z,35.50
2023-04-05T21:50:33.479Z,38.08
2023-04-05T21:53:00.226Z,40.47
2023-04-05T21:55:26.954Z,48.85
2023-04-05T21:57:53.768Z,66.95
2023-04-05T22:00:20.675Z,53.22
2023-04-05T22:02:47.388Z,51.00
2023-04-05T22:05:22.606Z,44.33
2023-04-05T22:08:01.684Z,50.10
2023-04-05T22:10:28.853Z,47.72
2023-04-05T22:12:55.613Z,50.38
2023-04-05T22:15:22.331Z,48.03
2023-04-05T22:17:49.062Z,41.55
2023-04-05T22:20:15.913Z,42.35
2023-04-05T22:22:42.586Z,35.55
2023-04-05T22:25:09.727Z,33.97
2023-04-05T22:27:36.602Z,37.45
2023-04-05T22:30:04.680Z,36.88
2023-04-05T22:32:31.534Z,36.92
2023-04-05T22:34:58.520Z,36.22
2023-04-05T22:37:25.221Z,36.78
2023-04-05T22:39:52.486Z,36.40
2023-04-05T22:42:19.200Z,37.33
2023-04-05T22:44:46.032Z,38.85
2023-04-05T22:47:12.694Z,44.75
2023-04-05T22:49:39.363Z,49.38
2023-04-05T22:52:06.178Z,43.22
2023-04-05T22:54:32.896Z,41.45
2023-04-05T22:56:59.583Z,42.50
2023-04-05T22:59:26.273Z,40.97
2023-04-05T23:01:53.152Z,36.72
2023-04-05T23:04:19.955Z,40.55
2023-04-05T23:06:46.681Z,37.20
2023-04-05T23:09:14.540Z,37.95
2023-04-05T23:11:41.304Z,39.58
2023-04-05T23:14:08.564Z,39.05
2023-04-05T23:16:35.570Z,38.30
2023-04-05T23:19:02.302Z,38.08
2023-04-05T23:21:29.016Z,38.55
2023-04-05T23:23:55.764Z,38.63
2023-04-05T23:26:22.479Z,37.60
2023-04-05T23:28:49.198Z,37.63
2023-04-05T23:31:16.062Z,37.85
2023-04-05T23:33:42.867Z,38.08
2023-04-05T23:36:09.784Z,36.33
2023-04-05T23:38:36.747Z,35.25
2023-04-05T23:41:03.804Z,34.17
2023-04-05T23:43:32.384Z,36.42
2023-04-05T23:45:59.143Z,35.05
2023-04-05T23:48:25.946Z,33.97
2023-04-05T23:50:52.941Z,35.13
2023-04-05T23:53:19.693Z,33.55
2023-04-05T23:55:46.639Z,35.28
2023-04-05T23:58:13.323Z,35.53
